• Join FlightAware (Why Join?)
  • Login
  • US Flag 
08:38PM EST


 

Airport Tracker/Info


-or-


 

Live Flight TrackerFlight Track Log ✈ CXA8365 ✈ 18-Jun-2014 ✈ ZSAM / XMN - ZGGG / CAN

Flight Track Log - Related Links

Times and Time Zones

All times are in EDT time to prevent confusion due to time zone crossing. See the CXA8365 flight status page for this flight to view local times or setup timezone preferences in your user account.

Time Position Orientation Groundspeed Altitude Reporting Facility
EDT Latitude Longitude Course Direction KTS MPH feet Rate Location/Type
11:53PM 24.3952 117.4607 256° West  Level Estimated
11:54PM 24.3737 117.3656 256° West  Level Estimated
11:55PM 24.3521 117.2704 256° West  Level Estimated
11:56PM 24.3305 117.1753 256° West  Level Estimated
11:57PM 24.3088 117.0803 256° West  Level Estimated
11:58PM 24.2871 116.9853 256° West  Level Estimated
11:59PM 24.2653 116.8903 256° West  Level Estimated
12:00AM 24.2434 116.7953 256° West  Level Estimated
12:01AM 24.2215 116.7004 256° West  Level Estimated
12:02AM 24.1996 116.6055 256° West  Level Estimated
12:03AM 24.1775 116.5106 256° West  Level Estimated
12:04AM 24.1554 116.4158 256° West  Level Estimated
12:05AM 24.1333 116.3210 256° West  Level Estimated
12:06AM 24.1111 116.2262 256° West  Level Estimated
12:07AM 24.0888 116.1315 256° West  Level Estimated
12:08AM 24.0665 116.0368 256° West  Level Estimated
12:09AM 24.0441 115.9421 256° West  Level Estimated
12:10AM 24.0216 115.8475 255° West  Level Estimated
12:11AM 23.9991 115.7529 255° West  Level Estimated
12:12AM 23.9766 115.6583 255° West  Level Estimated
12:13AM 23.9540 115.5638 255° West  Level Estimated
12:14AM 23.9313 115.4693 255° West  Level Estimated
12:15AM 23.9086 115.3748 255° West  Level Estimated
12:16AM 23.8858 115.2803 255° West  Level Estimated
12:17AM 23.8629 115.1860 255° West  Level Estimated
12:18AM 23.8400 115.0916 255° West  Level Estimated
12:19AM 23.8171 114.9972 255° West  Level Estimated
12:20AM 23.7940 114.9029 255° West  Level Estimated
12:21AM 23.7710 114.8087 255° West  Level Estimated
12:22AM 23.7478 114.7144 255° West  Level Estimated
12:23AM 23.7246 114.6202 255° West  Level Estimated
12:23AM 23.5126 115.0858 274° West 407 468 21,700  Level FlightAware ADS-B
12:24AM 23.7014 114.5261 255° West  Level Estimated
12:26AM 23.4989 114.8656 266° West  Level Estimated
12:27AM 23.4927 114.7684 266° West  Level Estimated
12:28AM 23.4865 114.6713 266° West  Level Estimated
12:29AM 23.4803 114.5742 266° West  Level Estimated
12:30AM 23.4740 114.4771 266° West  Level Estimated
12:31AM 23.4676 114.3800 266° West  Level Estimated
12:32AM 23.4611 114.2829 266° West  Level Estimated
12:33AM 23.4546 114.1858 266° West  Level Estimated
12:34AM 23.4481 114.0887 266° West  Level Estimated
12:35AM 23.4415 113.9916 266° West  Level Estimated
12:36AM 23.4348 113.8946 266° West  Level Estimated
12:37AM 23.4280 113.7975 266° West  Level Estimated
12:38AM 23.4212 113.7005 266° West  Level Estimated
12:39AM 23.4144 113.6035 266° West  Level Estimated
12:40AM 23.4074 113.5065 266° West  Level Estimated
12:41AM 23.4005 113.4095 266° West  Level Estimated
12:42AM 23.3934 113.3125 265° West  Level Estimated
12:43AM 23.3924 113.2988 265° West  Level Estimated
12:44AM 23.3924 113.2988 North  Level Estimated
12:45AM 23.3924 113.2988 North  Level Estimated
12:46AM 23.3924 113.2988 North  Level Estimated
12:47AM 23.3924 113.2988 North  Level Estimated
12:48AM 23.3924 113.2988 North  Level Estimated
12:49AM 23.3924 113.2988 North  Level Estimated
12:50AM 23.3924 113.2988 North  Level Estimated
12:51AM 23.3924 113.2988 North  Level Estimated
12:52AM 23.3924 113.2988 North  Level Estimated
12:53AM 23.3924 113.2988 North  Level Estimated